createdAt,value
2022-08-19T00:02:00.488Z,20.40
2022-08-19T00:04:33.463Z,20.40
2022-08-19T00:07:01.989Z,20.40
2022-08-19T00:09:31.181Z,20.30
2022-08-19T00:12:00.886Z,20.40
2022-08-19T00:14:32.542Z,20.20
2022-08-19T00:17:01.346Z,20.20
2022-08-19T00:19:29.589Z,20.20
2022-08-19T00:21:57.591Z,20.30
2022-08-19T00:24:29.597Z,20.30
2022-08-19T00:26:58.315Z,20.20
2022-08-19T00:29:52.333Z,20.20
2022-08-19T00:32:21.725Z,20.20
2022-08-19T00:34:49.735Z,20.30
2022-08-19T00:37:17.702Z,20.30
2022-08-19T00:39:45.677Z,20.30
2022-08-19T00:42:17.391Z,20.30
2022-08-19T00:44:46.827Z,20.30
2022-08-19T00:47:16.073Z,20.30
2022-08-19T00:49:52.193Z,20.30
2022-08-19T00:52:25.708Z,20.30
2022-08-19T00:54:55.110Z,20.30
2022-08-19T00:57:31.901Z,20.30
2022-08-19T01:00:03.644Z,20.30
2022-08-19T01:02:34.359Z,20.30
2022-08-19T01:05:08.285Z,20.30
2022-08-19T01:07:38.102Z,20.30
2022-08-19T01:10:11.193Z,20.20
2022-08-19T01:12:39.860Z,20.20
2022-08-19T01:15:13.968Z,20.20
2022-08-19T01:17:44.837Z,20.20
2022-08-19T01:20:16.573Z,20.10
2022-08-19T01:22:49.915Z,20.10
2022-08-19T01:25:21.960Z,20.10
2022-08-19T01:27:54.128Z,20.10
2022-08-19T01:30:27.776Z,20.10
2022-08-19T01:32:57.105Z,20.20
2022-08-19T01:35:30.130Z,20.30
2022-08-19T01:38:03.417Z,20.30
2022-08-19T01:40:34.687Z,20.30
2022-08-19T01:43:04.665Z,20.30
2022-08-19T01:45:36.073Z,20.30
2022-08-19T01:48:05.537Z,20.40
2022-08-19T01:50:35.939Z,20.40
2022-08-19T01:53:11.367Z,20.20
2022-08-19T01:55:44.658Z,20.10
2022-08-19T01:58:19.634Z,20.00
2022-08-19T02:00:47.629Z,20.10
2022-08-19T02:03:16.923Z,20.10
2022-08-19T02:05:46.586Z,20.20
2022-08-19T02:08:15.935Z,20.30
2022-08-19T02:10:45.874Z,20.30
2022-08-19T02:13:15.547Z,20.30
2022-08-19T02:15:46.219Z,20.30
2022-08-19T02:18:15.224Z,20.40
2022-08-19T02:20:45.462Z,20.40
2022-08-19T02:23:17.914Z,20.40
2022-08-19T02:25:48.847Z,20.20
2022-08-19T02:28:18.904Z,20.20
2022-08-19T02:30:49.862Z,20.20
2022-08-19T02:33:18.585Z,20.20
2022-08-19T02:35:47.598Z,20.20
2022-08-19T02:38:28.280Z,20.20
2022-08-19T02:41:00.270Z,20.20
2022-08-19T02:43:33.899Z,20.20
2022-08-19T02:46:04.257Z,20.10
2022-08-19T02:48:33.753Z,20.10
2022-08-19T02:51:01.763Z,20.10
2022-08-19T02:53:31.274Z,20.10
2022-08-19T02:55:59.506Z,20.20
2022-08-19T02:58:28.314Z,20.20
2022-08-19T03:00:58.968Z,20.20
2022-08-19T03:03:28.060Z,20.20
2022-08-19T03:06:11.799Z,20.30
2022-08-19T03:08:43.370Z,20.30
2022-08-19T03:11:16.971Z,20.30
2022-08-19T03:13:45.082Z,20.30
2022-08-19T03:16:14.606Z,20.30
2022-08-19T03:18:42.763Z,20.30
2022-08-19T03:21:12.473Z,20.30
2022-08-19T03:23:42.013Z,20.30
2022-08-19T03:26:16.023Z,20.20
2022-08-19T03:28:51.545Z,20.00
2022-08-19T03:31:45.514Z,20.00
2022-08-19T03:34:20.520Z,20.00
2022-08-19T03:36:49.422Z,19.90
2022-08-19T03:39:19.490Z,19.80
2022-08-19T03:42:32.306Z,19.90
2022-08-19T03:44:39.581Z,19.90
2022-08-19T03:47:07.736Z,19.90
2022-08-19T03:49:36.140Z,19.80
2022-08-19T03:52:08.390Z,19.90
2022-08-19T03:54:39.513Z,19.80
2022-08-19T03:57:09.862Z,19.80
2022-08-19T03:59:41.451Z,19.70
2022-08-19T04:02:13.878Z,19.70
2022-08-19T04:04:44.940Z,19.80
2022-08-19T04:07:17.085Z,19.70
2022-08-19T04:09:46.450Z,19.60
2022-08-19T04:12:14.514Z,19.60
2022-08-19T04:14:49.904Z,19.60
2022-08-19T04:17:17.822Z,19.60
2022-08-19T04:19:45.825Z,19.60
2022-08-19T04:22:13.779Z,19.70
2022-08-19T04:24:41.829Z,19.70
2022-08-19T04:27:11.085Z,19.70
2022-08-19T04:29:40.471Z,19.70
2022-08-19T04:32:09.898Z,19.80
2022-08-19T04:35:02.482Z,19.80
2022-08-19T04:37:31.861Z,19.80
2022-08-19T04:40:24.270Z,19.80
2022-08-19T04:42:54.514Z,19.80
2022-08-19T04:45:23.242Z,19.90
2022-08-19T04:47:58.300Z,19.90
2022-08-19T04:50:28.303Z,20.00
2022-08-19T04:52:57.007Z,20.00
2022-08-19T04:55:27.356Z,20.00
2022-08-19T04:57:57.042Z,20.00
2022-08-19T05:00:25.868Z,20.00
2022-08-19T05:02:54.075Z,20.10
2022-08-19T05:05:22.384Z,20.00
2022-08-19T05:07:50.561Z,20.10
2022-08-19T05:10:18.761Z,20.00
2022-08-19T05:12:46.814Z,20.00
2022-08-19T05:15:16.238Z,19.90
2022-08-19T05:18:04.227Z,20.00
2022-08-19T05:20:50.000Z,19.90
2022-08-19T05:23:21.843Z,19.90
2022-08-19T05:25:52.574Z,19.80
2022-08-19T05:28:21.237Z,19.80
2022-08-19T05:30:51.925Z,19.80
2022-08-19T05:33:20.620Z,19.80
2022-08-19T05:35:50.221Z,19.80
2022-08-19T05:38:19.539Z,19.80
2022-08-19T05:40:49.101Z,19.80
2022-08-19T05:43:17.498Z,19.80
2022-08-19T05:45:46.190Z,19.90
2022-08-19T05:48:16.121Z,19.80
2022-08-19T05:50:46.215Z,19.80
2022-08-19T05:53:15.311Z,19.80
2022-08-19T05:55:43.251Z,19.90
2022-08-19T05:58:12.274Z,19.80
2022-08-19T06:00:40.989Z,19.80
2022-08-19T06:03:12.652Z,19.70
2022-08-19T06:05:51.608Z,19.60
2022-08-19T06:08:33.782Z,19.60
2022-08-19T06:11:17.872Z,19.60
2022-08-19T06:13:51.388Z,19.60
2022-08-19T06:16:23.221Z,19.60
2022-08-19T06:18:53.467Z,19.60
2022-08-19T06:21:25.630Z,19.60
2022-08-19T06:23:54.823Z,19.60
2022-08-19T06:26:24.400Z,19.60
2022-08-19T06:28:52.732Z,19.60
2022-08-19T06:31:24.007Z,19.60
2022-08-19T06:33:52.591Z,19.60
2022-08-19T06:36:32.350Z,19.60
2022-08-19T06:39:01.081Z,19.60
2022-08-19T06:41:31.003Z,19.70
2022-08-19T06:43:59.508Z,19.70
2022-08-19T06:46:28.295Z,19.70
2022-08-19T06:48:56.969Z,19.70
2022-08-19T06:54:00.162Z,19.80
2022-08-19T06:56:35.673Z,19.80
2022-08-19T06:59:06.030Z,19.80
2022-08-19T07:01:38.371Z,19.80
2022-08-19T07:04:09.484Z,19.80
2022-08-19T07:06:44.217Z,19.80
2022-08-19T07:09:18.379Z,19.90
2022-08-19T07:11:48.955Z,19.80
2022-08-19T07:14:20.083Z,19.90
2022-08-19T07:16:52.377Z,19.90
2022-08-19T07:19:22.072Z,19.90
2022-08-19T07:21:53.801Z,19.90
2022-08-19T07:24:25.320Z,19.90
2022-08-19T07:26:57.714Z,20.00
2022-08-19T07:29:28.577Z,20.00
2022-08-19T07:32:00.232Z,20.00
2022-08-19T07:34:31.875Z,20.10
2022-08-19T07:37:01.186Z,20.30
2022-08-19T07:39:33.883Z,20.30
2022-08-19T07:42:09.111Z,20.30
2022-08-19T07:47:48.157Z,20.30
2022-08-19T07:50:00.813Z,20.30
2022-08-19T07:52:30.318Z,20.20
2022-08-19T07:54:58.230Z,20.10
2022-08-19T07:57:26.159Z,20.10
2022-08-19T07:59:54.194Z,20.10
2022-08-19T08:02:22.150Z,20.10
2022-08-19T08:05:07.894Z,20.10
2022-08-19T08:08:03.128Z,20.00
2022-08-19T08:10:31.131Z,20.00
2022-08-19T08:13:09.170Z,20.10
2022-08-19T08:15:43.285Z,20.10
2022-08-19T08:18:12.879Z,20.00
2022-08-19T08:20:42.556Z,20.00
2022-08-19T08:23:27.405Z,19.90
2022-08-19T08:26:00.139Z,19.90
2022-08-19T08:28:30.624Z,20.00
2022-08-19T08:31:00.237Z,19.90
2022-08-19T08:33:33.758Z,20.00
2022-08-19T08:36:04.254Z,19.90
2022-08-19T08:38:39.849Z,19.90
2022-08-19T08:41:23.604Z,19.90
2022-08-19T08:43:54.463Z,20.00
2022-08-19T08:46:32.624Z,20.10
2022-08-19T08:49:09.858Z,20.20
2022-08-19T08:51:44.228Z,20.20
2022-08-19T08:54:25.270Z,20.30
2022-08-19T08:56:56.219Z,20.30
2022-08-19T08:59:33.322Z,20.40
2022-08-19T09:02:02.237Z,20.40
2022-08-19T09:04:30.791Z,20.50
2022-08-19T09:07:35.476Z,20.50
2022-08-19T09:10:21.249Z,20.50
2022-08-19T09:13:12.063Z,20.50
2022-08-19T09:15:47.537Z,20.50
2022-08-19T09:18:19.459Z,20.60
2022-08-19T09:20:49.175Z,20.60
2022-08-19T09:23:17.869Z,20.60
2022-08-19T09:25:49.866Z,20.60
2022-08-19T09:28:22.664Z,20.70
2022-08-19T09:30:55.440Z,20.70
2022-08-19T09:33:23.508Z,20.60
2022-08-19T09:35:53.554Z,20.60
2022-08-19T09:38:22.504Z,20.60
2022-08-19T09:40:51.994Z,20.60
2022-08-19T09:43:27.816Z,20.50
2022-08-19T09:46:02.290Z,20.50
2022-08-19T09:48:30.249Z,20.50
2022-08-19T09:51:06.097Z,20.50
2022-08-19T09:53:34.303Z,20.50
2022-08-19T09:56:04.924Z,20.50
2022-08-19T09:58:33.390Z,20.50
2022-08-19T10:01:04.315Z,20.50
2022-08-19T10:03:34.888Z,20.50
2022-08-19T10:06:14.766Z,20.50
2022-08-19T10:08:49.880Z,20.50
2022-08-19T10:11:27.925Z,20.50
2022-08-19T10:14:06.884Z,20.50
2022-08-19T10:16:39.590Z,20.50
2022-08-19T10:19:08.028Z,20.60
2022-08-19T10:21:36.345Z,20.60
2022-08-19T10:24:07.297Z,20.60
2022-08-19T10:26:46.188Z,20.50
2022-08-19T10:29:32.684Z,20.50
2022-08-19T10:32:03.312Z,20.50
2022-08-19T10:34:32.670Z,20.50
2022-08-19T10:37:02.077Z,20.50
2022-08-19T10:39:33.693Z,20.60
2022-08-19T10:42:14.270Z,20.50
2022-08-19T10:44:43.375Z,20.50
2022-08-19T10:47:17.621Z,20.50
2022-08-19T10:50:12.364Z,20.50
2022-08-19T10:52:50.146Z,20.50
2022-08-19T10:55:40.980Z,20.40
2022-08-19T10:58:15.856Z,20.40
2022-08-19T11:00:52.540Z,20.40
2022-08-19T11:03:20.591Z,20.50
2022-08-19T11:05:50.828Z,20.50
2022-08-19T11:08:23.034Z,20.50
2022-08-19T11:10:58.279Z,20.50
2022-08-19T11:13:28.258Z,20.50
2022-08-19T11:16:06.791Z,20.50
2022-08-19T11:18:38.596Z,20.60
2022-08-19T11:21:14.425Z,20.60
2022-08-19T11:23:42.983Z,20.50
2022-08-19T11:26:11.771Z,20.50
2022-08-19T11:28:41.588Z,20.50
2022-08-19T11:31:13.676Z,20.50
2022-08-19T11:33:42.122Z,20.50
2022-08-19T11:36:16.986Z,20.40
2022-08-19T11:38:49.332Z,20.40
2022-08-19T11:41:20.526Z,20.40
2022-08-19T11:43:49.843Z,20.40
2022-08-19T11:46:19.275Z,20.30
2022-08-19T11:48:47.485Z,20.30
2022-08-19T11:51:21.116Z,20.40
2022-08-19T11:53:50.512Z,20.40
2022-08-19T11:56:20.867Z,20.40
2022-08-19T11:58:50.819Z,20.50
2022-08-19T12:01:21.322Z,20.50
2022-08-19T12:03:51.687Z,20.60
2022-08-19T12:06:24.260Z,20.60
2022-08-19T12:08:52.381Z,20.70
2022-08-19T12:11:20.471Z,20.70
2022-08-19T12:13:49.820Z,20.80
2022-08-19T12:16:21.656Z,20.70
2022-08-19T12:18:51.790Z,20.70
2022-08-19T12:21:27.610Z,20.80
2022-08-19T12:23:57.396Z,20.80
2022-08-19T12:26:27.027Z,20.80
2022-08-19T12:28:56.892Z,20.80
2022-08-19T12:31:25.005Z,20.80
2022-08-19T12:33:53.654Z,20.70
2022-08-19T12:36:22.905Z,20.80
2022-08-19T12:38:51.454Z,20.70
2022-08-19T12:41:22.091Z,20.70
2022-08-19T12:43:51.690Z,20.80
2022-08-19T12:46:22.660Z,20.70
2022-08-19T12:48:56.115Z,20.70
2022-08-19T12:51:24.432Z,20.70
2022-08-19T12:53:52.397Z,20.70
2022-08-19T12:56:23.220Z,20.70
2022-08-19T12:58:53.015Z,20.70
2022-08-19T13:01:23.538Z,20.60
2022-08-19T13:03:53.385Z,20.60
2022-08-19T13:06:23.714Z,20.60
2022-08-19T13:08:53.689Z,20.60
2022-08-19T13:11:26.097Z,20.70
2022-08-19T13:13:55.972Z,20.60
2022-08-19T13:16:25.284Z,20.60
2022-08-19T13:18:53.762Z,20.60
2022-08-19T13:21:24.813Z,20.60
2022-08-19T13:23:54.024Z,20.60
2022-08-19T13:26:23.301Z,20.60
2022-08-19T13:29:09.757Z,20.60
2022-08-19T13:32:01.001Z,20.60
2022-08-19T13:34:33.038Z,20.60
2022-08-19T13:37:03.898Z,20.60
2022-08-19T13:39:33.372Z,20.60
2022-08-19T13:42:03.209Z,20.60
2022-08-19T13:44:31.565Z,20.50
2022-08-19T13:47:08.120Z,20.50
2022-08-19T13:49:37.827Z,20.50
2022-08-19T13:52:07.127Z,20.50
2022-08-19T13:54:35.374Z,20.50
2022-08-19T13:57:03.315Z,20.50
2022-08-19T13:59:31.238Z,20.40
2022-08-19T14:02:01.248Z,20.50
2022-08-19T14:04:30.819Z,20.50
2022-08-19T14:06:58.818Z,20.50
2022-08-19T14:09:26.823Z,20.50
2022-08-19T14:11:54.795Z,20.50
2022-08-19T14:14:24.165Z,20.50
2022-08-19T14:16:52.864Z,20.50
2022-08-19T14:19:21.131Z,20.50
2022-08-19T14:21:50.543Z,20.50
2022-08-19T14:24:18.457Z,20.50
2022-08-19T14:26:46.429Z,20.50
2022-08-19T14:29:14.329Z,20.50
2022-08-19T14:31:43.495Z,20.50
2022-08-19T14:34:13.626Z,20.60
2022-08-19T14:36:42.920Z,20.50
2022-08-19T14:39:12.575Z,20.50
2022-08-19T14:41:43.501Z,20.50
2022-08-19T14:44:13.410Z,20.50
2022-08-19T14:46:49.400Z,20.60
2022-08-19T14:49:19.395Z,20.60
2022-08-19T14:51:48.607Z,20.60
2022-08-19T14:54:17.863Z,20.60
2022-08-19T14:56:45.997Z,20.60
2022-08-19T14:59:14.108Z,20.60
2022-08-19T15:01:42.127Z,20.50
2022-08-19T15:04:10.254Z,20.60
2022-08-19T15:06:39.025Z,20.50
2022-08-19T15:09:07.562Z,20.50
2022-08-19T15:11:39.291Z,20.60
2022-08-19T15:14:07.836Z,20.60
2022-08-19T15:16:35.812Z,20.60
2022-08-19T15:19:03.890Z,20.70
2022-08-19T15:21:32.373Z,20.70
2022-08-19T15:24:02.492Z,20.70
2022-08-19T15:26:33.104Z,20.60
2022-08-19T15:29:03.738Z,20.60
2022-08-19T15:31:35.372Z,20.60
2022-08-19T15:34:06.778Z,20.60
2022-08-19T15:36:35.151Z,20.60
2022-08-19T15:39:03.485Z,20.60
2022-08-19T15:41:32.513Z,20.60
2022-08-19T15:44:08.964Z,20.60
2022-08-19T15:46:40.301Z,20.50
2022-08-19T15:49:11.463Z,20.50
2022-08-19T15:51:42.911Z,20.50
2022-08-19T15:54:14.113Z,20.50
2022-08-19T15:56:59.974Z,20.50
2022-08-19T15:59:47.810Z,20.50
2022-08-19T16:02:34.277Z,20.50
2022-08-19T16:05:20.247Z,20.50
2022-08-19T16:07:48.465Z,20.40
2022-08-19T16:10:26.157Z,20.40
2022-08-19T16:12:58.107Z,20.40
2022-08-19T16:15:30.676Z,20.40
2022-08-19T16:18:02.728Z,20.40
2022-08-19T16:20:32.008Z,20.40
2022-08-19T16:23:03.418Z,20.50
2022-08-19T16:25:31.468Z,20.40
2022-08-19T16:28:07.922Z,20.40
2022-08-19T16:30:40.227Z,20.40
2022-08-19T16:33:09.702Z,20.40
2022-08-19T16:35:38.608Z,20.40
2022-08-19T16:38:07.804Z,20.40
2022-08-19T16:40:36.523Z,20.40
2022-08-19T16:43:05.343Z,20.40
2022-08-19T16:45:33.373Z,20.40
2022-08-19T16:48:19.223Z,20.40
2022-08-19T16:50:49.493Z,20.40
2022-08-19T16:53:28.894Z,20.40
2022-08-19T16:55:57.723Z,20.40
2022-08-19T16:58:29.087Z,20.40
2022-08-19T17:01:03.736Z,20.40
2022-08-19T17:03:36.542Z,20.30
2022-08-19T17:06:15.998Z,20.40
2022-08-19T17:08:50.942Z,20.40
2022-08-19T17:11:21.142Z,20.40
2022-08-19T17:13:50.756Z,20.40
2022-08-19T17:16:24.446Z,20.40
2022-08-19T17:18:54.633Z,20.40
2022-08-19T17:21:25.437Z,20.40
2022-08-19T17:23:53.402Z,20.40
2022-08-19T17:26:21.504Z,20.40
2022-08-19T17:28:52.130Z,20.50
2022-08-19T17:31:24.540Z,20.50
2022-08-19T17:33:55.137Z,20.40
2022-08-19T17:36:26.141Z,20.40
2022-08-19T17:39:01.766Z,20.40
2022-08-19T17:41:35.901Z,20.30
2022-08-19T17:44:05.505Z,20.20
2022-08-19T17:46:34.950Z,20.20
2022-08-19T17:49:04.629Z,20.20
2022-08-19T17:51:49.451Z,20.30
2022-08-19T17:54:20.430Z,20.20
2022-08-19T17:56:49.243Z,20.10
2022-08-19T17:59:20.654Z,20.20
2022-08-19T18:01:54.443Z,20.20
2022-08-19T18:04:29.784Z,20.20
2022-08-19T18:06:58.436Z,20.20
2022-08-19T18:09:41.879Z,20.20
2022-08-19T18:12:16.358Z,20.20
2022-08-19T18:14:46.358Z,20.30
2022-08-19T18:17:19.261Z,20.30
2022-08-19T18:19:54.373Z,20.20
2022-08-19T18:22:29.531Z,20.20
2022-08-19T18:24:59.759Z,20.20
2022-08-19T18:27:28.896Z,20.20
2022-08-19T18:30:01.209Z,20.20
2022-08-19T18:32:35.438Z,20.20
2022-08-19T18:35:20.111Z,20.20
2022-08-19T18:37:50.894Z,20.20
2022-08-19T18:41:06.752Z,20.30
2022-08-19T18:43:52.336Z,20.20
2022-08-19T18:46:37.727Z,20.20
2022-08-19T18:49:14.416Z,20.10
2022-08-19T18:51:47.160Z,19.90
2022-08-19T18:54:17.763Z,19.90
2022-08-19T18:56:48.960Z,19.90
2022-08-19T18:59:21.069Z,19.90
2022-08-19T19:01:50.442Z,19.90
2022-08-19T19:04:24.420Z,19.80
2022-08-19T19:06:54.414Z,19.80
2022-08-19T19:09:25.050Z,19.80
2022-08-19T19:11:59.269Z,19.90
2022-08-19T19:14:48.663Z,20.00
2022-08-19T19:17:25.892Z,19.80
2022-08-19T19:19:53.928Z,19.70
2022-08-19T19:22:24.771Z,19.60
2022-08-19T19:24:55.471Z,19.50
2022-08-19T19:27:27.585Z,19.60
2022-08-19T19:29:55.746Z,19.50
2022-08-19T19:32:30.068Z,19.50
2022-08-19T19:35:19.219Z,19.60
2022-08-19T19:37:52.485Z,19.50
2022-08-19T19:40:22.223Z,19.50
2022-08-19T19:42:53.386Z,19.60
2022-08-19T19:45:30.405Z,19.60
2022-08-19T19:47:59.916Z,19.50
2022-08-19T19:50:31.371Z,19.50
2022-08-19T19:53:00.690Z,19.50
2022-08-19T19:55:28.993Z,19.50
2022-08-19T19:57:57.733Z,19.50
2022-08-19T20:00:26.661Z,19.40
2022-08-19T20:02:55.938Z,19.50
2022-08-19T20:05:25.870Z,19.50
2022-08-19T20:08:13.403Z,19.40
2022-08-19T20:10:44.825Z,19.40
2022-08-19T20:13:15.386Z,19.40
2022-08-19T20:15:44.409Z,19.30
2022-08-19T20:18:14.268Z,19.20
2022-08-19T20:20:43.518Z,19.20
2022-08-19T20:23:11.918Z,19.20
2022-08-19T20:25:42.033Z,19.20
2022-08-19T20:28:11.886Z,19.20
2022-08-19T20:30:46.272Z,19.20
2022-08-19T20:33:14.736Z,19.20
2022-08-19T20:35:45.316Z,19.20
2022-08-19T20:38:13.958Z,19.20
2022-08-19T20:40:43.312Z,19.20
2022-08-19T20:43:14.039Z,19.00
2022-08-19T20:45:42.500Z,19.00
2022-08-19T20:48:12.383Z,18.90
2022-08-19T20:50:40.617Z,18.70
2022-08-19T20:53:15.366Z,18.60
2022-08-19T20:55:49.076Z,18.70
2022-08-19T20:58:21.104Z,18.70
2022-08-19T21:00:51.838Z,18.70
2022-08-19T21:03:24.445Z,18.60
2022-08-19T21:05:52.623Z,18.70
2022-08-19T21:08:20.869Z,18.60
2022-08-19T21:10:53.193Z,18.60
2022-08-19T21:13:21.876Z,18.50
2022-08-19T21:15:50.506Z,18.50
2022-08-19T21:18:21.814Z,18.40
2022-08-19T21:20:51.199Z,18.30
2022-08-19T21:23:24.364Z,18.30
2022-08-19T21:25:55.334Z,18.30
2022-08-19T21:28:34.269Z,18.30
2022-08-19T21:31:07.251Z,18.30
2022-08-19T21:33:35.405Z,18.30
2022-08-19T21:36:05.235Z,18.20
2022-08-19T21:38:33.470Z,18.20
2022-08-19T21:41:06.314Z,18.00
2022-08-19T21:43:35.583Z,18.00
2022-08-19T21:46:03.769Z,18.00
2022-08-19T21:48:31.716Z,18.10
2022-08-19T21:50:59.932Z,18.10
2022-08-19T21:53:34.007Z,18.10
2022-08-19T21:56:04.712Z,18.00
2022-08-19T21:58:33.511Z,18.10
2022-08-19T22:01:05.917Z,18.00
2022-08-19T22:03:34.579Z,18.10
2022-08-19T22:06:02.789Z,18.10
2022-08-19T22:08:31.421Z,18.10
2022-08-19T22:11:00.071Z,18.20
2022-08-19T22:13:39.976Z,18.20
2022-08-19T22:16:10.068Z,18.30
2022-08-19T22:18:38.672Z,18.40
2022-08-19T22:21:11.598Z,18.40
2022-08-19T22:23:41.302Z,18.30
2022-08-19T22:26:09.911Z,18.30
2022-08-19T22:28:39.686Z,18.30
2022-08-19T22:31:09.910Z,18.20
2022-08-19T22:33:39.060Z,18.20
2022-08-19T22:36:08.452Z,18.10
2022-08-19T22:38:37.348Z,18.10
2022-08-19T22:41:07.930Z,18.00
2022-08-19T22:43:36.868Z,18.10
2022-08-19T22:46:16.949Z,18.10
2022-08-19T22:48:46.628Z,18.10
2022-08-19T22:51:32.785Z,18.00
2022-08-19T22:54:00.892Z,18.10
2022-08-19T22:56:30.680Z,18.10
2022-08-19T22:58:58.640Z,18.00
2022-08-19T23:01:30.185Z,18.00
2022-08-19T23:03:59.426Z,18.00
2022-08-19T23:06:31.233Z,18.00
2022-08-19T23:09:04.735Z,18.00
2022-08-19T23:11:35.823Z,18.00
2022-08-19T23:14:12.375Z,18.00
2022-08-19T23:16:42.929Z,18.10
2022-08-19T23:19:11.168Z,18.10
2022-08-19T23:21:39.721Z,18.10
2022-08-19T23:24:08.740Z,18.10
2022-08-19T23:26:36.803Z,18.10
2022-08-19T23:29:24.192Z,18.20
2022-08-19T23:31:53.734Z,18.10
2022-08-19T23:34:21.675Z,18.10
2022-08-19T23:36:50.422Z,18.00
2022-08-19T23:39:19.163Z,18.00
2022-08-19T23:41:47.237Z,17.90
2022-08-19T23:44:15.188Z,17.90
2022-08-19T23:46:54.484Z,18.00
2022-08-19T23:49:26.789Z,18.00
2022-08-19T23:51:56.424Z,18.10
2022-08-19T23:54:32.042Z,18.20
2022-08-19T23:57:13.152Z,18.30
2022-08-19T23:59:45.204Z,18.20
